sensor_id;sensor_type;location;lat;lon;timestamp;temperature;humidity
17208;DHT22;8720;48.488;9.202;2022-10-16T00:01:21;18.80;70.40
17208;DHT22;8720;48.488;9.202;2022-10-16T00:03:49;18.80;70.00
17208;DHT22;8720;48.488;9.202;2022-10-16T00:06:19;18.80;70.40
17208;DHT22;8720;48.488;9.202;2022-10-16T00:08:48;18.80;70.20
17208;DHT22;8720;48.488;9.202;2022-10-16T00:11:17;18.80;70.50
17208;DHT22;8720;48.488;9.202;2022-10-16T00:13:47;18.70;70.10
17208;DHT22;8720;48.488;9.202;2022-10-16T00:16:19;18.70;70.20
17208;DHT22;8720;48.488;9.202;2022-10-16T00:18:47;18.70;70.30
17208;DHT22;8720;48.488;9.202;2022-10-16T00:21:17;18.70;70.10
17208;DHT22;8720;48.488;9.202;2022-10-16T00:23:45;18.60;69.70
17208;DHT22;8720;48.488;9.202;2022-10-16T00:26:16;18.60;69.90
17208;DHT22;8720;48.488;9.202;2022-10-16T00:28:47;18.60;69.80
17208;DHT22;8720;48.488;9.202;2022-10-16T00:31:15;18.60;69.50
17208;DHT22;8720;48.488;9.202;2022-10-16T00:33:44;18.50;69.90
17208;DHT22;8720;48.488;9.202;2022-10-16T00:36:12;18.50;69.90
17208;DHT22;8720;48.488;9.202;2022-10-16T00:38:42;18.40;69.70
17208;DHT22;8720;48.488;9.202;2022-10-16T00:41:12;18.40;70.00
17208;DHT22;8720;48.488;9.202;2022-10-16T00:43:43;18.40;69.70
17208;DHT22;8720;48.488;9.202;2022-10-16T00:46:19;18.40;70.00
17208;DHT22;8720;48.488;9.202;2022-10-16T00:48:52;18.30;69.20
17208;DHT22;8720;48.488;9.202;2022-10-16T00:51:25;18.30;69.70
17208;DHT22;8720;48.488;9.202;2022-10-16T00:53:57;18.30;69.70
17208;DHT22;8720;48.488;9.202;2022-10-16T00:56:26;18.30;70.50
17208;DHT22;8720;48.488;9.202;2022-10-16T00:58:53;18.30;70.40
17208;DHT22;8720;48.488;9.202;2022-10-16T01:01:22;18.30;70.60
17208;DHT22;8720;48.488;9.202;2022-10-16T01:03:52;18.30;70.20
17208;DHT22;8720;48.488;9.202;2022-10-16T01:06:23;18.30;70.60
17208;DHT22;8720;48.488;9.202;2022-10-16T01:09:00;18.30;70.60
17208;DHT22;8720;48.488;9.202;2022-10-16T01:11:44;18.30;70.00
17208;DHT22;8720;48.488;9.202;2022-10-16T01:14:21;18.30;70.10
17208;DHT22;8720;48.488;9.202;2022-10-16T01:16:58;18.30;70.50
17208;DHT22;8720;48.488;9.202;2022-10-16T01:19:50;18.30;70.40
17208;DHT22;8720;48.488;9.202;2022-10-16T01:22:37;18.30;69.80
17208;DHT22;8720;48.488;9.202;2022-10-16T01:25:14;18.30;70.10
17208;DHT22;8720;48.488;9.202;2022-10-16T01:27:50;18.30;70.80
17208;DHT22;8720;48.488;9.202;2022-10-16T01:30:21;18.30;71.10
17208;DHT22;8720;48.488;9.202;2022-10-16T01:32:56;18.30;70.80
17208;DHT22;8720;48.488;9.202;2022-10-16T01:35:29;18.30;70.80
17208;DHT22;8720;48.488;9.202;2022-10-16T01:38:03;18.30;71.10
17208;DHT22;8720;48.488;9.202;2022-10-16T01:40:35;18.20;70.90
17208;DHT22;8720;48.488;9.202;2022-10-16T01:43:08;18.20;71.10
17208;DHT22;8720;48.488;9.202;2022-10-16T01:45:41;18.20;71.00
17208;DHT22;8720;48.488;9.202;2022-10-16T01:48:12;18.20;71.20
17208;DHT22;8720;48.488;9.202;2022-10-16T01:50:48;18.20;71.50
17208;DHT22;8720;48.488;9.202;2022-10-16T01:53:22;18.10;71.20
17208;DHT22;8720;48.488;9.202;2022-10-16T01:55:52;18.10;71.30
17208;DHT22;8720;48.488;9.202;2022-10-16T01:58:24;18.10;71.70
17208;DHT22;8720;48.488;9.202;2022-10-16T02:06:03;18.10;72.10
17208;DHT22;8720;48.488;9.202;2022-10-16T02:08:31;18.10;72.00
17208;DHT22;8720;48.488;9.202;2022-10-16T02:10:59;18.10;72.10
17208;DHT22;8720;48.488;9.202;2022-10-16T02:13:32;18.10;71.60
17208;DHT22;8720;48.488;9.202;2022-10-16T02:16:04;18.10;71.50
17208;DHT22;8720;48.488;9.202;2022-10-16T02:18:33;18.10;72.10
17208;DHT22;8720;48.488;9.202;2022-10-16T02:21:04;18.10;72.10
17208;DHT22;8720;48.488;9.202;2022-10-16T02:23:46;18.10;71.70
17208;DHT22;8720;48.488;9.202;2022-10-16T02:26:23;18.10;71.50
17208;DHT22;8720;48.488;9.202;2022-10-16T02:29:00;18.10;71.50
17208;DHT22;8720;48.488;9.202;2022-10-16T02:31:34;18.10;71.70
17208;DHT22;8720;48.488;9.202;2022-10-16T02:34:06;18.10;71.90
17208;DHT22;8720;48.488;9.202;2022-10-16T02:36:36;18.10;72.10
17208;DHT22;8720;48.488;9.202;2022-10-16T02:39:06;18.10;72.20
17208;DHT22;8720;48.488;9.202;2022-10-16T02:41:34;18.20;72.40
17208;DHT22;8720;48.488;9.202;2022-10-16T02:44:03;18.20;72.80
17208;DHT22;8720;48.488;9.202;2022-10-16T02:46:30;18.20;72.50
17208;DHT22;8720;48.488;9.202;2022-10-16T02:48:57;18.20;72.80
17208;DHT22;8720;48.488;9.202;2022-10-16T02:51:24;18.20;72.90
17208;DHT22;8720;48.488;9.202;2022-10-16T02:53:52;18.10;72.90
17208;DHT22;8720;48.488;9.202;2022-10-16T02:56:19;18.10;73.00
17208;DHT22;8720;48.488;9.202;2022-10-16T02:58:46;18.10;73.10
17208;DHT22;8720;48.488;9.202;2022-10-16T03:01:15;18.10;73.30
17208;DHT22;8720;48.488;9.202;2022-10-16T03:03:42;18.00;73.00
17208;DHT22;8720;48.488;9.202;2022-10-16T03:06:10;18.00;73.50
17208;DHT22;8720;48.488;9.202;2022-10-16T03:08:37;18.00;73.60
17208;DHT22;8720;48.488;9.202;2022-10-16T03:11:04;17.90;73.50
17208;DHT22;8720;48.488;9.202;2022-10-16T03:13:31;17.90;73.70
17208;DHT22;8720;48.488;9.202;2022-10-16T03:15:58;17.90;73.70
17208;DHT22;8720;48.488;9.202;2022-10-16T03:18:27;17.80;73.60
17208;DHT22;8720;48.488;9.202;2022-10-16T03:20:54;17.80;73.50
17208;DHT22;8720;48.488;9.202;2022-10-16T03:23:21;17.80;73.80
17208;DHT22;8720;48.488;9.202;2022-10-16T03:25:48;17.70;73.80
17208;DHT22;8720;48.488;9.202;2022-10-16T03:28:15;17.70;74.00
17208;DHT22;8720;48.488;9.202;2022-10-16T03:30:43;17.70;74.20
17208;DHT22;8720;48.488;9.202;2022-10-16T03:33:10;17.60;74.20
17208;DHT22;8720;48.488;9.202;2022-10-16T03:35:39;17.60;74.40
17208;DHT22;8720;48.488;9.202;2022-10-16T03:38:06;17.60;74.20
17208;DHT22;8720;48.488;9.202;2022-10-16T03:40:33;17.60;74.60
17208;DHT22;8720;48.488;9.202;2022-10-16T03:43:00;17.60;75.40
17208;DHT22;8720;48.488;9.202;2022-10-16T03:45:27;17.50;74.80
17208;DHT22;8720;48.488;9.202;2022-10-16T03:47:54;17.50;74.90
17208;DHT22;8720;48.488;9.202;2022-10-16T03:50:22;17.50;75.00
17208;DHT22;8720;48.488;9.202;2022-10-16T03:52:50;17.50;75.10
17208;DHT22;8720;48.488;9.202;2022-10-16T03:55:17;17.40;74.90
17208;DHT22;8720;48.488;9.202;2022-10-16T03:57:44;17.40;75.30
17208;DHT22;8720;48.488;9.202;2022-10-16T04:00:12;17.40;75.40
17208;DHT22;8720;48.488;9.202;2022-10-16T04:02:40;17.40;75.30
17208;DHT22;8720;48.488;9.202;2022-10-16T04:05:07;17.40;75.60
17208;DHT22;8720;48.488;9.202;2022-10-16T04:07:35;17.40;75.70
17208;DHT22;8720;48.488;9.202;2022-10-16T04:10:05;17.40;75.80
17208;DHT22;8720;48.488;9.202;2022-10-16T04:12:33;17.30;75.40
17208;DHT22;8720;48.488;9.202;2022-10-16T04:15:00;17.30;75.90
17208;DHT22;8720;48.488;9.202;2022-10-16T04:17:27;17.30;75.90
17208;DHT22;8720;48.488;9.202;2022-10-16T04:19:54;17.30;75.90
17208;DHT22;8720;48.488;9.202;2022-10-16T04:22:21;17.30;76.00
17208;DHT22;8720;48.488;9.202;2022-10-16T04:24:49;17.30;76.00
17208;DHT22;8720;48.488;9.202;2022-10-16T04:27:17;17.30;76.10
17208;DHT22;8720;48.488;9.202;2022-10-16T04:29:45;17.30;76.10
17208;DHT22;8720;48.488;9.202;2022-10-16T04:32:12;17.30;76.40
17208;DHT22;8720;48.488;9.202;2022-10-16T04:34:39;17.30;76.40
17208;DHT22;8720;48.488;9.202;2022-10-16T04:37:06;17.30;76.40
17208;DHT22;8720;48.488;9.202;2022-10-16T04:39:34;17.30;76.60
17208;DHT22;8720;48.488;9.202;2022-10-16T04:42:01;17.30;76.70
17208;DHT22;8720;48.488;9.202;2022-10-16T04:44:30;17.20;76.50
17208;DHT22;8720;48.488;9.202;2022-10-16T04:46:57;17.20;76.40
17208;DHT22;8720;48.488;9.202;2022-10-16T04:49:24;17.20;76.80
17208;DHT22;8720;48.488;9.202;2022-10-16T04:51:51;17.20;76.90
17208;DHT22;8720;48.488;9.202;2022-10-16T04:54:18;17.20;77.10
17208;DHT22;8720;48.488;9.202;2022-10-16T04:56:45;17.20;77.10
17208;DHT22;8720;48.488;9.202;2022-10-16T04:59:14;17.20;77.20
17208;DHT22;8720;48.488;9.202;2022-10-16T05:01:43;17.20;77.00
17208;DHT22;8720;48.488;9.202;2022-10-16T05:04:10;17.20;76.80
17208;DHT22;8720;48.488;9.202;2022-10-16T05:06:38;17.20;77.20
17208;DHT22;8720;48.488;9.202;2022-10-16T05:09:05;17.20;77.20
17208;DHT22;8720;48.488;9.202;2022-10-16T05:11:32;17.20;77.40
17208;DHT22;8720;48.488;9.202;2022-10-16T05:14:00;17.20;77.40
17208;DHT22;8720;48.488;9.202;2022-10-16T05:16:28;17.20;77.40
17208;DHT22;8720;48.488;9.202;2022-10-16T05:18:58;17.20;77.40
17208;DHT22;8720;48.488;9.202;2022-10-16T05:21:25;17.20;77.20
17208;DHT22;8720;48.488;9.202;2022-10-16T05:23:53;17.20;77.30
17208;DHT22;8720;48.488;9.202;2022-10-16T05:26:20;17.20;77.20
17208;DHT22;8720;48.488;9.202;2022-10-16T05:28:49;17.20;77.20
17208;DHT22;8720;48.488;9.202;2022-10-16T05:31:16;17.20;76.90
17208;DHT22;8720;48.488;9.202;2022-10-16T05:33:44;17.10;77.10
17208;DHT22;8720;48.488;9.202;2022-10-16T05:36:12;17.10;77.20
17208;DHT22;8720;48.488;9.202;2022-10-16T05:38:39;17.10;77.00
17208;DHT22;8720;48.488;9.202;2022-10-16T05:41:06;17.10;77.30
17208;DHT22;8720;48.488;9.202;2022-10-16T05:43:34;17.00;77.10
17208;DHT22;8720;48.488;9.202;2022-10-16T05:46:03;17.00;77.10
17208;DHT22;8720;48.488;9.202;2022-10-16T05:48:32;17.00;77.00
17208;DHT22;8720;48.488;9.202;2022-10-16T05:51:01;16.90;77.20
17208;DHT22;8720;48.488;9.202;2022-10-16T05:53:33;16.90;77.60
17208;DHT22;8720;48.488;9.202;2022-10-16T05:56:02;16.90;77.20
17208;DHT22;8720;48.488;9.202;2022-10-16T05:58:31;17.00;77.70
17208;DHT22;8720;48.488;9.202;2022-10-16T06:01:01;16.90;77.70
17208;DHT22;8720;48.488;9.202;2022-10-16T06:03:30;16.90;77.80
17208;DHT22;8720;48.488;9.202;2022-10-16T06:05:57;17.00;78.40
17208;DHT22;8720;48.488;9.202;2022-10-16T06:08:24;17.00;78.60
17208;DHT22;8720;48.488;9.202;2022-10-16T06:11:02;17.00;78.60
17208;DHT22;8720;48.488;9.202;2022-10-16T06:13:30;17.00;77.50
17208;DHT22;8720;48.488;9.202;2022-10-16T06:15:58;17.10;78.80
17208;DHT22;8720;48.488;9.202;2022-10-16T06:18:27;17.10;78.80
17208;DHT22;8720;48.488;9.202;2022-10-16T06:20:55;17.20;78.80
17208;DHT22;8720;48.488;9.202;2022-10-16T06:23:24;17.20;78.80
17208;DHT22;8720;48.488;9.202;2022-10-16T06:25:51;17.20;78.80
17208;DHT22;8720;48.488;9.202;2022-10-16T06:28:22;17.30;78.80
17208;DHT22;8720;48.488;9.202;2022-10-16T06:30:58;17.30;78.40
17208;DHT22;8720;48.488;9.202;2022-10-16T06:33:26;17.30;77.40
17208;DHT22;8720;48.488;9.202;2022-10-16T06:35:53;17.20;78.10
17208;DHT22;8720;48.488;9.202;2022-10-16T06:38:32;17.30;78.80
17208;DHT22;8720;48.488;9.202;2022-10-16T06:41:00;17.30;78.60
17208;DHT22;8720;48.488;9.202;2022-10-16T06:43:30;17.40;78.70
17208;DHT22;8720;48.488;9.202;2022-10-16T06:45:59;17.40;78.30
17208;DHT22;8720;48.488;9.202;2022-10-16T06:48:27;17.40;78.50
17208;DHT22;8720;48.488;9.202;2022-10-16T06:50:56;17.50;78.50
17208;DHT22;8720;48.488;9.202;2022-10-16T06:53:24;17.60;79.50
17208;DHT22;8720;48.488;9.202;2022-10-16T06:55:53;17.60;79.20
17208;DHT22;8720;48.488;9.202;2022-10-16T06:58:20;17.70;79.60
17208;DHT22;8720;48.488;9.202;2022-10-16T07:00:54;17.80;79.70
17208;DHT22;8720;48.488;9.202;2022-10-16T07:03:22;17.90;79.30
17208;DHT22;8720;48.488;9.202;2022-10-16T07:05:49;17.90;80.00
17208;DHT22;8720;48.488;9.202;2022-10-16T07:08:18;18.00;79.20
17208;DHT22;8720;48.488;9.202;2022-10-16T07:10:45;18.10;79.20
17208;DHT22;8720;48.488;9.202;2022-10-16T07:13:13;18.20;79.10
17208;DHT22;8720;48.488;9.202;2022-10-16T07:15:42;18.20;78.90
17208;DHT22;8720;48.488;9.202;2022-10-16T07:18:10;18.30;78.10
17208;DHT22;8720;48.488;9.202;2022-10-16T07:20:38;18.30;78.20
17208;DHT22;8720;48.488;9.202;2022-10-16T07:23:05;18.40;78.40
17208;DHT22;8720;48.488;9.202;2022-10-16T07:25:32;18.40;78.00
17208;DHT22;8720;48.488;9.202;2022-10-16T07:27:59;18.40;78.00
17208;DHT22;8720;48.488;9.202;2022-10-16T07:30:27;18.50;78.00
17208;DHT22;8720;48.488;9.202;2022-10-16T07:32:54;18.60;78.10
17208;DHT22;8720;48.488;9.202;2022-10-16T07:35:22;18.60;78.20
17208;DHT22;8720;48.488;9.202;2022-10-16T07:37:50;18.70;77.80
17208;DHT22;8720;48.488;9.202;2022-10-16T07:40:17;18.70;78.20
17208;DHT22;8720;48.488;9.202;2022-10-16T07:42:44;18.80;78.20
17208;DHT22;8720;48.488;9.202;2022-10-16T07:45:12;18.90;78.10
17208;DHT22;8720;48.488;9.202;2022-10-16T07:47:39;19.00;78.20
17208;DHT22;8720;48.488;9.202;2022-10-16T07:50:07;19.10;77.90
17208;DHT22;8720;48.488;9.202;2022-10-16T07:52:36;19.20;78.00
17208;DHT22;8720;48.488;9.202;2022-10-16T07:55:04;19.30;76.80
17208;DHT22;8720;48.488;9.202;2022-10-16T07:57:31;19.40;77.10
17208;DHT22;8720;48.488;9.202;2022-10-16T07:59:59;19.50;76.80
17208;DHT22;8720;48.488;9.202;2022-10-16T08:02:26;19.50;76.50
17208;DHT22;8720;48.488;9.202;2022-10-16T08:04:53;19.60;76.10
17208;DHT22;8720;48.488;9.202;2022-10-16T08:07:21;19.70;76.50
17208;DHT22;8720;48.488;9.202;2022-10-16T08:09:50;19.90;75.40
17208;DHT22;8720;48.488;9.202;2022-10-16T08:12:18;20.00;74.00
17208;DHT22;8720;48.488;9.202;2022-10-16T08:14:45;20.10;74.60
17208;DHT22;8720;48.488;9.202;2022-10-16T08:17:14;20.20;74.40
17208;DHT22;8720;48.488;9.202;2022-10-16T08:19:44;20.30;73.30
17208;DHT22;8720;48.488;9.202;2022-10-16T08:22:11;20.40;72.60
17208;DHT22;8720;48.488;9.202;2022-10-16T08:24:39;20.40;73.20
17208;DHT22;8720;48.488;9.202;2022-10-16T08:27:08;20.50;73.60
17208;DHT22;8720;48.488;9.202;2022-10-16T08:29:35;20.50;72.40
17208;DHT22;8720;48.488;9.202;2022-10-16T08:32:04;20.60;73.00
17208;DHT22;8720;48.488;9.202;2022-10-16T08:34:31;20.70;72.70
17208;DHT22;8720;48.488;9.202;2022-10-16T08:36:59;20.70;72.60
17208;DHT22;8720;48.488;9.202;2022-10-16T08:39:27;20.70;72.10
17208;DHT22;8720;48.488;9.202;2022-10-16T08:42:15;20.80;72.50
17208;DHT22;8720;48.488;9.202;2022-10-16T08:48:13;21.00;70.50
17208;DHT22;8720;48.488;9.202;2022-10-16T08:50:48;21.20;71.50
17208;DHT22;8720;48.488;9.202;2022-10-16T08:53:22;21.30;71.70
17208;DHT22;8720;48.488;9.202;2022-10-16T08:55:57;21.40;70.90
17208;DHT22;8720;48.488;9.202;2022-10-16T08:58:29;21.50;71.90
17208;DHT22;8720;48.488;9.202;2022-10-16T09:00:59;21.60;70.70
17208;DHT22;8720;48.488;9.202;2022-10-16T09:03:42;21.70;70.50
17208;DHT22;8720;48.488;9.202;2022-10-16T09:06:35;21.80;68.50
17208;DHT22;8720;48.488;9.202;2022-10-16T09:09:26;22.00;67.90
17208;DHT22;8720;48.488;9.202;2022-10-16T09:12:19;22.10;67.50
17208;DHT22;8720;48.488;9.202;2022-10-16T09:14:59;22.20;68.50
17208;DHT22;8720;48.488;9.202;2022-10-16T09:17:40;22.30;68.30
17208;DHT22;8720;48.488;9.202;2022-10-16T09:20:35;22.40;68.80
17208;DHT22;8720;48.488;9.202;2022-10-16T09:23:17;22.60;67.30
17208;DHT22;8720;48.488;9.202;2022-10-16T09:25:47;22.70;69.10
17208;DHT22;8720;48.488;9.202;2022-10-16T09:28:17;22.80;68.80
17208;DHT22;8720;48.488;9.202;2022-10-16T09:30:47;22.90;67.90
17208;DHT22;8720;48.488;9.202;2022-10-16T09:33:16;23.00;66.20
17208;DHT22;8720;48.488;9.202;2022-10-16T09:35:48;23.10;66.50
17208;DHT22;8720;48.488;9.202;2022-10-16T09:38:26;23.10;66.00
17208;DHT22;8720;48.488;9.202;2022-10-16T09:40:56;23.20;63.60
17208;DHT22;8720;48.488;9.202;2022-10-16T09:43:26;23.20;65.60
17208;DHT22;8720;48.488;9.202;2022-10-16T09:46:01;23.30;64.50
17208;DHT22;8720;48.488;9.202;2022-10-16T09:48:35;23.30;64.30
17208;DHT22;8720;48.488;9.202;2022-10-16T09:51:06;23.40;63.50
17208;DHT22;8720;48.488;9.202;2022-10-16T09:53:44;23.40;64.60
17208;DHT22;8720;48.488;9.202;2022-10-16T09:56:21;23.50;64.70
17208;DHT22;8720;48.488;9.202;2022-10-16T09:58:50;23.50;62.80
17208;DHT22;8720;48.488;9.202;2022-10-16T10:01:22;23.60;64.30
17208;DHT22;8720;48.488;9.202;2022-10-16T10:03:56;23.70;63.30
17208;DHT22;8720;48.488;9.202;2022-10-16T10:06:28;23.70;62.80
17208;DHT22;8720;48.488;9.202;2022-10-16T10:09:04;23.70;63.00
17208;DHT22;8720;48.488;9.202;2022-10-16T10:11:52;23.80;62.80
17208;DHT22;8720;48.488;9.202;2022-10-16T10:14:27;23.80;61.50
17208;DHT22;8720;48.488;9.202;2022-10-16T10:17:18;23.80;61.40
17208;DHT22;8720;48.488;9.202;2022-10-16T10:19:50;23.90;60.40
17208;DHT22;8720;48.488;9.202;2022-10-16T10:22:28;23.90;61.80
17208;DHT22;8720;48.488;9.202;2022-10-16T10:25:01;23.90;62.30
17208;DHT22;8720;48.488;9.202;2022-10-16T10:30:52;23.90;61.20
17208;DHT22;8720;48.488;9.202;2022-10-16T10:33:32;23.90;60.80
17208;DHT22;8720;48.488;9.202;2022-10-16T10:36:22;23.90;62.00
17208;DHT22;8720;48.488;9.202;2022-10-16T10:38:58;24.00;59.50
17208;DHT22;8720;48.488;9.202;2022-10-16T10:44:55;24.20;58.60
17208;DHT22;8720;48.488;9.202;2022-10-16T10:47:41;24.30;57.80
17208;DHT22;8720;48.488;9.202;2022-10-16T10:50:25;24.40;58.20
17208;DHT22;8720;48.488;9.202;2022-10-16T10:53:01;24.50;57.90
17208;DHT22;8720;48.488;9.202;2022-10-16T10:55:40;24.50;58.00
17208;DHT22;8720;48.488;9.202;2022-10-16T10:58:27;24.60;57.90
17208;DHT22;8720;48.488;9.202;2022-10-16T11:01:09;24.60;56.40
17208;DHT22;8720;48.488;9.202;2022-10-16T11:04:00;24.70;57.70
17208;DHT22;8720;48.488;9.202;2022-10-16T11:06:50;24.70;55.10
17208;DHT22;8720;48.488;9.202;2022-10-16T11:09:25;24.70;56.00
17208;DHT22;8720;48.488;9.202;2022-10-16T11:12:00;24.70;56.40
17208;DHT22;8720;48.488;9.202;2022-10-16T11:14:35;24.80;55.90
17208;DHT22;8720;48.488;9.202;2022-10-16T11:17:12;24.80;55.60
17208;DHT22;8720;48.488;9.202;2022-10-16T11:19:45;24.80;55.40
17208;DHT22;8720;48.488;9.202;2022-10-16T11:22:22;24.80;54.50
17208;DHT22;8720;48.488;9.202;2022-10-16T11:25:00;24.80;54.10
17208;DHT22;8720;48.488;9.202;2022-10-16T11:27:42;24.80;53.90
17208;DHT22;8720;48.488;9.202;2022-10-16T11:30:17;24.90;54.50
17208;DHT22;8720;48.488;9.202;2022-10-16T11:32:56;24.90;54.30
17208;DHT22;8720;48.488;9.202;2022-10-16T11:35:39;24.90;53.40
17208;DHT22;8720;48.488;9.202;2022-10-16T11:38:19;24.90;53.30
17208;DHT22;8720;48.488;9.202;2022-10-16T11:40:58;24.90;52.60
17208;DHT22;8720;48.488;9.202;2022-10-16T11:43:34;25.00;55.00
17208;DHT22;8720;48.488;9.202;2022-10-16T11:46:10;25.00;53.70
17208;DHT22;8720;48.488;9.202;2022-10-16T11:48:45;25.00;53.20
17208;DHT22;8720;48.488;9.202;2022-10-16T11:51:21;25.00;53.60
17208;DHT22;8720;48.488;9.202;2022-10-16T11:54:02;25.00;52.30
17208;DHT22;8720;48.488;9.202;2022-10-16T11:56:39;25.10;53.20
17208;DHT22;8720;48.488;9.202;2022-10-16T11:59:19;25.10;53.60
17208;DHT22;8720;48.488;9.202;2022-10-16T12:01:58;25.10;52.20
17208;DHT22;8720;48.488;9.202;2022-10-16T12:04:45;25.10;53.00
17208;DHT22;8720;48.488;9.202;2022-10-16T12:07:21;25.20;53.60
17208;DHT22;8720;48.488;9.202;2022-10-16T12:09:52;25.30;53.70
17208;DHT22;8720;48.488;9.202;2022-10-16T12:12:25;25.30;53.20
17208;DHT22;8720;48.488;9.202;2022-10-16T12:15:00;25.30;52.70
17208;DHT22;8720;48.488;9.202;2022-10-16T12:17:36;25.40;51.90
17208;DHT22;8720;48.488;9.202;2022-10-16T12:20:25;25.40;52.10
17208;DHT22;8720;48.488;9.202;2022-10-16T12:23:00;25.50;50.90
17208;DHT22;8720;48.488;9.202;2022-10-16T12:25:33;25.50;53.10
17208;DHT22;8720;48.488;9.202;2022-10-16T12:28:05;25.60;52.80
17208;DHT22;8720;48.488;9.202;2022-10-16T12:30:35;25.60;53.20
17208;DHT22;8720;48.488;9.202;2022-10-16T12:33:05;25.60;53.30
17208;DHT22;8720;48.488;9.202;2022-10-16T12:35:47;25.70;52.60
17208;DHT22;8720;48.488;9.202;2022-10-16T12:38:17;25.70;53.60
17208;DHT22;8720;48.488;9.202;2022-10-16T12:40:56;25.80;53.10
17208;DHT22;8720;48.488;9.202;2022-10-16T12:43:35;25.80;51.70
17208;DHT22;8720;48.488;9.202;2022-10-16T12:46:20;25.70;50.80
17208;DHT22;8720;48.488;9.202;2022-10-16T12:48:50;25.80;53.20
17208;DHT22;8720;48.488;9.202;2022-10-16T12:51:25;25.80;53.20
17208;DHT22;8720;48.488;9.202;2022-10-16T12:54:04;25.80;51.40
17208;DHT22;8720;48.488;9.202;2022-10-16T12:56:52;25.80;52.50
17208;DHT22;8720;48.488;9.202;2022-10-16T12:59:41;25.80;51.00
17208;DHT22;8720;48.488;9.202;2022-10-16T13:02:45;25.80;51.70
17208;DHT22;8720;48.488;9.202;2022-10-16T13:05:32;25.80;50.10
17208;DHT22;8720;48.488;9.202;2022-10-16T13:08:24;25.80;51.40
17208;DHT22;8720;48.488;9.202;2022-10-16T13:11:19;25.80;51.20
17208;DHT22;8720;48.488;9.202;2022-10-16T13:14:18;25.80;51.50
17208;DHT22;8720;48.488;9.202;2022-10-16T13:17:03;25.80;51.00
17208;DHT22;8720;48.488;9.202;2022-10-16T13:19:43;25.80;51.80
17208;DHT22;8720;48.488;9.202;2022-10-16T13:22:22;25.90;52.00
17208;DHT22;8720;48.488;9.202;2022-10-16T13:25:04;25.90;51.00
17208;DHT22;8720;48.488;9.202;2022-10-16T13:27:50;25.90;51.10
17208;DHT22;8720;48.488;9.202;2022-10-16T13:30:25;25.90;51.60
17208;DHT22;8720;48.488;9.202;2022-10-16T13:33:00;25.90;52.10
17208;DHT22;8720;48.488;9.202;2022-10-16T13:35:30;25.90;52.80
17208;DHT22;8720;48.488;9.202;2022-10-16T13:38:11;25.80;52.50
17208;DHT22;8720;48.488;9.202;2022-10-16T13:40:51;25.80;52.00
17208;DHT22;8720;48.488;9.202;2022-10-16T13:43:23;25.80;51.10
17208;DHT22;8720;48.488;9.202;2022-10-16T13:45:57;25.80;52.50
17208;DHT22;8720;48.488;9.202;2022-10-16T13:48:26;25.80;52.60
17208;DHT22;8720;48.488;9.202;2022-10-16T13:51:04;25.80;53.80
17208;DHT22;8720;48.488;9.202;2022-10-16T13:53:34;25.80;52.00
17208;DHT22;8720;48.488;9.202;2022-10-16T13:56:04;25.70;54.20
17208;DHT22;8720;48.488;9.202;2022-10-16T13:58:33;25.70;52.60
17208;DHT22;8720;48.488;9.202;2022-10-16T14:01:04;25.80;53.60
17208;DHT22;8720;48.488;9.202;2022-10-16T14:03:33;25.70;52.20
17208;DHT22;8720;48.488;9.202;2022-10-16T14:06:04;25.80;52.40
17208;DHT22;8720;48.488;9.202;2022-10-16T14:08:43;25.80;52.60
17208;DHT22;8720;48.488;9.202;2022-10-16T14:11:13;25.80;52.60
17208;DHT22;8720;48.488;9.202;2022-10-16T14:13:48;25.70;53.50
17208;DHT22;8720;48.488;9.202;2022-10-16T14:16:20;25.70;53.50
17208;DHT22;8720;48.488;9.202;2022-10-16T14:18:56;25.70;52.00
17208;DHT22;8720;48.488;9.202;2022-10-16T14:21:26;25.70;52.10
17208;DHT22;8720;48.488;9.202;2022-10-16T14:23:54;25.70;53.80
17208;DHT22;8720;48.488;9.202;2022-10-16T14:26:23;25.70;53.90
17208;DHT22;8720;48.488;9.202;2022-10-16T14:29:09;25.70;53.00
17208;DHT22;8720;48.488;9.202;2022-10-16T14:31:41;25.70;51.80
17208;DHT22;8720;48.488;9.202;2022-10-16T14:34:24;25.70;53.20
17208;DHT22;8720;48.488;9.202;2022-10-16T14:36:53;25.70;51.40
17208;DHT22;8720;48.488;9.202;2022-10-16T14:39:22;25.70;53.10
17208;DHT22;8720;48.488;9.202;2022-10-16T14:41:54;25.70;53.60
17208;DHT22;8720;48.488;9.202;2022-10-16T14:44:28;25.70;53.90
17208;DHT22;8720;48.488;9.202;2022-10-16T14:47:07;25.70;53.60
17208;DHT22;8720;48.488;9.202;2022-10-16T14:49:36;25.70;51.90
17208;DHT22;8720;48.488;9.202;2022-10-16T14:52:09;25.70;54.00
17208;DHT22;8720;48.488;9.202;2022-10-16T14:54:38;25.70;53.50
17208;DHT22;8720;48.488;9.202;2022-10-16T14:57:16;25.60;54.20
17208;DHT22;8720;48.488;9.202;2022-10-16T14:59:46;25.60;51.20
17208;DHT22;8720;48.488;9.202;2022-10-16T15:02:22;25.70;53.00
17208;DHT22;8720;48.488;9.202;2022-10-16T15:04:55;25.70;52.60
17208;DHT22;8720;48.488;9.202;2022-10-16T15:07:22;25.70;53.10
17208;DHT22;8720;48.488;9.202;2022-10-16T15:09:50;25.70;52.70
17208;DHT22;8720;48.488;9.202;2022-10-16T15:12:18;25.70;53.20
17208;DHT22;8720;48.488;9.202;2022-10-16T15:14:45;25.60;52.90
17208;DHT22;8720;48.488;9.202;2022-10-16T15:17:13;25.60;53.40
17208;DHT22;8720;48.488;9.202;2022-10-16T15:19:41;25.60;53.00
17208;DHT22;8720;48.488;9.202;2022-10-16T15:22:09;25.60;52.70
17208;DHT22;8720;48.488;9.202;2022-10-16T15:24:38;25.50;53.00
17208;DHT22;8720;48.488;9.202;2022-10-16T15:27:05;25.50;53.40
17208;DHT22;8720;48.488;9.202;2022-10-16T15:29:32;25.40;53.50
17208;DHT22;8720;48.488;9.202;2022-10-16T15:31:59;25.40;53.60
17208;DHT22;8720;48.488;9.202;2022-10-16T15:34:27;25.40;54.10
17208;DHT22;8720;48.488;9.202;2022-10-16T15:36:55;25.30;54.20
17208;DHT22;8720;48.488;9.202;2022-10-16T15:39:23;25.20;54.10
17208;DHT22;8720;48.488;9.202;2022-10-16T15:41:50;25.20;54.40
17208;DHT22;8720;48.488;9.202;2022-10-16T15:44:19;25.20;54.60
17208;DHT22;8720;48.488;9.202;2022-10-16T15:46:48;25.10;54.60
17208;DHT22;8720;48.488;9.202;2022-10-16T15:49:16;25.10;54.70
17208;DHT22;8720;48.488;9.202;2022-10-16T15:51:43;25.10;54.90
17208;DHT22;8720;48.488;9.202;2022-10-16T15:54:12;25.10;55.10
17208;DHT22;8720;48.488;9.202;2022-10-16T15:56:39;25.00;54.60
17208;DHT22;8720;48.488;9.202;2022-10-16T15:59:06;25.00;55.20
17208;DHT22;8720;48.488;9.202;2022-10-16T16:01:34;24.90;55.20
17208;DHT22;8720;48.488;9.202;2022-10-16T16:04:02;24.90;55.20
17208;DHT22;8720;48.488;9.202;2022-10-16T16:06:30;24.80;55.20
17208;DHT22;8720;48.488;9.202;2022-10-16T16:08:58;24.80;55.30
17208;DHT22;8720;48.488;9.202;2022-10-16T16:11:27;24.80;55.30
17208;DHT22;8720;48.488;9.202;2022-10-16T16:13:57;24.70;55.40
17208;DHT22;8720;48.488;9.202;2022-10-16T16:16:24;24.60;55.50
17208;DHT22;8720;48.488;9.202;2022-10-16T16:18:52;24.50;55.50
17208;DHT22;8720;48.488;9.202;2022-10-16T16:21:20;24.50;55.70
17208;DHT22;8720;48.488;9.202;2022-10-16T16:23:48;24.40;55.80
17208;DHT22;8720;48.488;9.202;2022-10-16T16:26:23;24.30;55.70
17208;DHT22;8720;48.488;9.202;2022-10-16T16:28:54;24.20;55.00
17208;DHT22;8720;48.488;9.202;2022-10-16T16:31:24;24.20;55.60